»·PEaware :: SWA1494 KLAS-KLAX

SWA1494 :: KLAS-KLAX

FLIGHT INFORMATION

Flight Status: Arrived
Operator:
Southwest Airlines
More flights by this operator :: More flights under this callsign
Pilot: Henderson P. (1210)
Aircraft: BOEING 737-700
(B737)
More flights by this aircraft type
Origin: KLAS McCarran Intl
United States
Destination: KLAX Los Angeles Intl
United States
More flights between these airports :: More routes between these airports
Route: BOACH8 RIKII SHTNR ANJLL4
File this flight plan on PilotEdge
Remarks:
Altitude:
(Current/Filed)
28,000ft
Speed:
(Current/Filed)
441kts
Departed: 07-Aug-18 07:14 AM
Arrived: 07-Aug-18 07:56 AM
Distance/Time
Traveled:
205nm/0:42
Distance/Time
To Go:
Arrived

Flight Plot

Page will automatically refresh every two minutes.

Flight plan parsing failed; only flown route is shown


Map Options




Map Legend


Flown Route
Filed Route
Departure Airport
Arrival Airport
Navaid (VOR, NDB)
Fix

Horizontal Profiles

Position Reports

Time Latitude Longitude Heading Altitude Ground
Speed
07-Aug-18 06:41 36.079795 -115.145823 335 2189ft 0kts
07-Aug-18 06:42 36.079795 -115.145823 335 2189ft 0kts
07-Aug-18 06:43 36.079795 -115.145823 335 2189ft 0kts
07-Aug-18 06:44 36.079795 -115.145823 335 2189ft 0kts
07-Aug-18 06:45 36.079795 -115.145823 335 2189ft 0kts
07-Aug-18 06:46 36.079795 -115.145823 335 2189ft 0kts
07-Aug-18 06:47 36.079795 -115.145823 335 2189ft 0kts
07-Aug-18 06:48 36.079795 -115.145823 335 2189ft 0kts
07-Aug-18 06:49 36.079795 -115.145823 335 2189ft 0kts
07-Aug-18 06:50 36.079795 -115.145823 335 2189ft 0kts
07-Aug-18 06:51 36.079795 -115.145823 335 2189ft 0kts
07-Aug-18 06:52 36.079795 -115.145823 335 2189ft 0kts
07-Aug-18 06:53 36.079795 -115.145823 335 2189ft 0kts
07-Aug-18 06:54 36.079795 -115.145823 335 2189ft 0kts
07-Aug-18 06:55 36.079795 -115.145823 335 2189ft 0kts
07-Aug-18 06:56 36.079795 -115.145823 335 2189ft 0kts
07-Aug-18 06:57 36.079795 -115.145823 335 2189ft 0kts
07-Aug-18 06:58 36.079795 -115.145823 335 2189ft 0kts
07-Aug-18 06:59 36.079795 -115.145823 335 2189ft 0kts
07-Aug-18 07:00 36.079795 -115.145823 335 2189ft 0kts
07-Aug-18 07:01 36.079795 -115.145823 335 2189ft 0kts
07-Aug-18 07:02 36.079795 -115.145823 335 2189ft 0kts
07-Aug-18 07:03 36.079795 -115.145823 335 2189ft 0kts
07-Aug-18 07:04 36.079795 -115.145823 335 2189ft 0kts
07-Aug-18 07:05 36.079701 -115.145769 335 2189ft 2kts
07-Aug-18 07:06 36.079108 -115.145429 335 2189ft 1kts
07-Aug-18 07:07 36.079106 -115.145427 335 2189ft 0kts
07-Aug-18 07:08 36.079106 -115.145427 335 2189ft 0kts
07-Aug-18 07:09 36.079033 -115.144854 180 2189ft 3kts
07-Aug-18 07:10 36.078294 -115.143860 93 2189ft 18kts
07-Aug-18 07:11 36.078270 -115.136465 90 2189ft 20kts
07-Aug-18 07:12 36.078282 -115.130087 89 2189ft 18kts
07-Aug-18 07:13 36.078278 -115.123852 88 2189ft 14kts
07-Aug-18 07:14 36.076418 -115.122584 269 2189ft 22kts
07-Aug-18 07:15 36.076306 -115.165077 270 3364ft 160kts
07-Aug-18 07:16 36.075691 -115.231864 267 5125ft 242kts
07-Aug-18 07:17 36.026454 -115.291149 184 7903ft 288kts
07-Aug-18 07:18 35.930546 -115.306562 185 11525ft 325kts
07-Aug-18 07:19 35.850639 -115.314307 179 13923ft 357kts
07-Aug-18 07:20 35.748758 -115.302832 175 17279ft 376kts
07-Aug-18 07:21 35.641843 -115.295233 183 20283ft 395kts
07-Aug-18 07:22 35.529338 -115.302235 190 22851ft 413kts
07-Aug-18 07:23 35.424053 -115.360376 212 25117ft 423kts
07-Aug-18 07:24 35.321670 -115.435409 212 27377ft 431kts
07-Aug-18 07:25 35.218160 -115.510376 212 27971ft 429kts
07-Aug-18 07:26 35.117714 -115.589162 222 27983ft 428kts
07-Aug-18 07:27 35.034680 -115.692312 228 27991ft 426kts
07-Aug-18 07:28 34.952771 -115.797464 227 27996ft 427kts
07-Aug-18 07:29 34.870539 -115.902068 227 28007ft 427kts
07-Aug-18 07:30 34.788200 -116.006284 227 28015ft 428kts
07-Aug-18 07:31 34.706146 -116.110570 227 28010ft 427kts
07-Aug-18 07:32 34.623946 -116.215129 227 28043ft 427kts
07-Aug-18 07:33 34.541740 -116.319551 227 28079ft 427kts
07-Aug-18 07:34 34.459358 -116.423482 227 28100ft 428kts
07-Aug-18 07:35 34.390660 -116.539712 244 28141ft 425kts
07-Aug-18 07:36 34.338397 -116.667466 244 28218ft 424kts
07-Aug-18 07:37 34.286955 -116.795497 244 27774ft 416kts
07-Aug-18 07:38 34.236640 -116.919954 244 25182ft 406kts
07-Aug-18 07:39 34.194493 -117.043364 252 22697ft 394kts
07-Aug-18 07:40 34.161278 -117.167143 251 20255ft 379kts
07-Aug-18 07:41 34.130846 -117.277841 251 17803ft 370kts
07-Aug-18 07:42 34.099304 -117.393431 252 15575ft 361kts
07-Aug-18 07:43 34.071023 -117.507018 251 13680ft 339kts
07-Aug-18 07:44 34.044292 -117.611771 251 11695ft 326kts
07-Aug-18 07:45 34.020024 -117.712496 259 10143ft 298kts
07-Aug-18 07:46 34.012064 -117.802533 262 8845ft 289kts
07-Aug-18 07:47 34.002913 -117.895649 262 7149ft 285kts
07-Aug-18 07:48 33.995782 -117.973333 263 6153ft 248kts
07-Aug-18 07:49 33.987928 -118.051961 263 4932ft 240kts
07-Aug-18 07:50 33.980204 -118.127584 263 3779ft 213kts
07-Aug-18 07:51 33.974050 -118.187705 263 3111ft 186kts
07-Aug-18 07:52 33.968222 -118.244616 263 2492ft 157kts
07-Aug-18 07:53 33.963220 -118.293443 263 1904ft 142kts
07-Aug-18 07:54 33.958507 -118.339465 262 1154ft 137kts
07-Aug-18 07:55 33.953809 -118.385678 261 420ft 136kts
07-Aug-18 07:56 33.950012 -118.422189 262 134ft 57kts
07-Aug-18 07:57 33.946496 -118.427821 149 134ft 9kts
07-Aug-18 07:58 33.946904 -118.421664 84 134ft 23kts
07-Aug-18 07:59 33.946642 -118.415740 82 134ft 21kts
07-Aug-18 08:03 33.947041 -118.401916 93 134ft 0kts
07-Aug-18 08:04 33.947041 -118.401916 93 134ft 0kts
07-Aug-18 08:05 33.947041 -118.401916 93 134ft 0kts
07-Aug-18 08:06 33.947041 -118.401916 93 134ft 0kts
07-Aug-18 08:07 33.947041 -118.401916 93 134ft 0kts
07-Aug-18 08:08 33.947041 -118.401916 93 134ft 0kts
07-Aug-18 08:09 33.947041 -118.401916 93 134ft 0kts
07-Aug-18 08:10 33.947041 -118.401916 93 134ft 0kts
07-Aug-18 08:11 33.947041 -118.401916 93 134ft 0kts

Navigation Log

Ident Type
Flight plan parsing failed, navigation log unavailable